Home, KS (66438)

10:37 AM CST on December 07, 2016 (GMT -0600)
N0NB | | Change Station

Elev 1318 ft 39.91 °N, 96.77 °W | Updated 13 seconds ago

Overcast
Overcast
23.6 °F
Feels Like 16 °F
N
6.0
Wind Variable Wind from NNW
Gusts 9.0 mph

Today
High -- | Low -- °F
--% Chance of Precip.
Yesterday
High -- | Low -- °F
Precip. -- in
Pressure 30.34 in
Visibility 10.0 miles
Clouds Overcast 6500 ft
Windchill 16 °F
Dew Point 12 °F
Humidity 62%
Rainfall 0.00 in
Snow Depth Not available.
7:34 AM 5:01 PM
First Quarter, 54% visible
METAR KBIE 071615Z AUTO 33013KT 10SM OVC065 M05/M13 A3034 RMK AO2 T10551126
Pressure 30.34 in
Visibility 10.0 miles
Clouds Overcast 6500 ft
Windchill 16 °F
Dew Point 12 °F
Humidity 62%
Rainfall 0.00 in
Snow Depth Not available.
7:34 AM 5:01 PM
First Quarter, 54% visible
METAR KBIE 071615Z AUTO 33013KT 10SM OVC065 M05/M13 A3034 RMK AO2 T10551126

10-Day Weather Forecast

Almanac

Astronomy

Dec. 07, 2016 Rise Set
Actual Time
Civil Twilight
Nautical Twilight
Astronomical Twilight
Moon
Length of Visible Light
Length of Day
Tomorrow will be .
, % of the Moon is Illuminated

Today's Extremes

State Highs State Lows

Community

WunderPhotos

Upload Photos

1,956,124 photos uploaded!

WunderBlog® & News

Nearby

Air Quality

  Air Quality AQ Index Pollutant
Not available.

Snow Depth

Station Depth Elevation

Earthquake Activity

City Distance Mag. Time & Date
Minimum magnitude displayed is 2.5.

Coastal Water Temperatures

Place Temperature

Stations

Nearby Weather Stations

Station Location Temp. Windchill Dew Point Humidity Wind Precip. Elev Updated Type
                   

Watches & Warnings

There are currently no watches in effect.